Time;durP1;ratioP1;P1;durP2;ratioP2;P2;SDS_P1;SDS_P2;PMS_P1;PMS_P2;Temp;Humidity;BMP_temperature;BMP_pressure;BME280_temperature;BME280_humidity;BME280_pressure;Samples;Min_cycle;Max_cycle;Signal;HPM_P1;HPM_P2
2021/08/06 00:01:47;;;;;;;17.00;15.60;;;15.80;99.90;;;;;;5108078;28;20070;-53
2021/08/06 00:04:13;;;;;;;17.35;15.88;;;15.80;99.90;;;;;;5114619;28;20055;-53
2021/08/06 00:06:42;;;;;;;17.00;15.40;;;15.70;99.90;;;;;;5108042;28;20169;-55
2021/08/06 00:09:11;;;;;;;17.73;16.23;;;15.70;99.90;;;;;;5107727;28;20146;-54
2021/08/06 00:11:39;;;;;;;18.03;16.23;;;15.70;99.90;;;;;;5108316;28;20094;-54
2021/08/06 00:14:06;;;;;;;18.85;17.10;;;15.70;99.90;;;;;;5107592;28;20352;-52
2021/08/06 00:16:33;;;;;;;17.20;15.60;;;15.70;99.90;;;;;;5111110;28;20048;-51
2021/08/06 00:18:59;;;;;;;18.17;16.58;;;15.60;99.90;;;;;;5108078;28;20055;-52
2021/08/06 00:21:28;;;;;;;18.75;16.95;;;15.60;99.90;;;;;;5109144;28;21023;-52
2021/08/06 00:23:54;;;;;;;18.80;17.02;;;15.60;99.90;;;;;;5107669;28;20047;-52
2021/08/06 00:26:20;;;;;;;18.92;17.15;;;15.50;99.90;;;;;;5107905;28;20407;-49
2021/08/06 00:28:49;;;;;;;19.35;17.65;;;15.50;99.90;;;;;;5107603;28;20043;-51
2021/08/06 00:31:15;;;;;;;19.95;18.17;;;15.50;99.90;;;;;;5108683;28;20573;-53
2021/08/06 00:33:42;;;;;;;19.42;17.65;;;15.50;99.90;;;;;;5089885;28;20059;-51
2021/08/06 00:36:10;;;;;;;19.92;18.13;;;15.50;99.90;;;;;;5106020;28;20566;-50
2021/08/06 00:38:38;;;;;;;18.95;17.25;;;15.50;99.90;;;;;;5089291;28;20072;-50
2021/08/06 00:41:05;;;;;;;18.77;17.17;;;15.40;99.90;;;;;;5107222;28;20681;-52
2021/08/06 00:43:32;;;;;;;20.83;18.92;;;15.40;99.90;;;;;;5089495;28;20172;-53
2021/08/06 00:46:03;;;;;;;20.33;18.33;;;15.40;99.90;;;;;;5087190;28;20055;-50
2021/08/06 00:48:34;;;;;;;22.23;20.23;;;15.40;99.90;;;;;;5107869;28;20051;-52
2021/08/06 00:51:02;;;;;;;19.73;17.92;;;15.40;99.90;;;;;;5087811;28;20052;-54
2021/08/06 00:53:30;;;;;;;20.55;18.58;;;15.40;99.90;;;;;;5086171;28;20374;-52
2021/08/06 00:56:01;;;;;;;19.63;17.88;;;15.40;99.90;;;;;;5078085;28;20085;-53
2021/08/06 00:58:30;;;;;;;19.77;17.85;;;15.40;99.90;;;;;;5087710;28;20055;-54
2021/08/06 01:01:00;;;;;;;21.25;19.23;;;15.40;99.90;;;;;;5087359;28;20051;-54
2021/08/06 01:03:52;;;;;;;21.13;19.17;;;15.50;99.90;;;;;;5089619;28;20064;-53
2021/08/06 01:06:30;;;;;;;20.73;18.92;;;15.50;99.90;;;;;;5087764;28;20062;-55
2021/08/06 01:09:11;;;;;;;19.73;18.00;;;15.50;99.90;;;;;;5068412;28;20056;-51
2021/08/06 01:11:42;;;;;;;19.13;17.52;;;15.50;99.90;;;;;;5087917;28;20051;-55
2021/08/06 01:14:15;;;;;;;19.30;17.60;;;15.40;99.90;;;;;;5087217;28;20047;-56
2021/08/06 01:16:45;;;;;;;19.65;17.85;;;15.40;99.90;;;;;;5085206;28;20314;-53
2021/08/06 01:19:43;;;;;;;20.48;18.50;;;15.40;99.90;;;;;;5088840;28;20052;-54
2021/08/06 01:22:27;;;;;;;20.00;18.10;;;15.50;99.90;;;;;;5071389;28;20127;-54
2021/08/06 01:25:10;;;;;;;18.83;17.23;;;15.50;99.90;;;;;;5085077;28;20523;-55
2021/08/06 01:27:48;;;;;;;19.27;17.63;;;15.50;99.90;;;;;;5087136;28;20056;-55
2021/08/06 01:30:15;;;;;;;19.35;17.25;;;15.50;99.90;;;;;;5085336;28;20427;-55
2021/08/06 01:32:42;;;;;;;20.70;18.48;;;15.50;99.90;;;;;;5101865;28;20703;-54
2021/08/06 01:35:13;;;;;;;19.65;17.90;;;15.50;99.90;;;;;;5093669;28;20104;-55
2021/08/06 01:37:43;;;;;;;19.98;18.27;;;15.50;99.90;;;;;;5088292;28;20067;-53
2021/08/06 01:40:10;;;;;;;20.00;18.17;;;15.50;99.90;;;;;;5088455;28;20520;-54
2021/08/06 01:42:52;;;;;;;19.45;17.63;;;15.50;99.90;;;;;;5087867;28;20035;-55
2021/08/06 01:45:28;;;;;;;19.58;17.77;;;15.60;99.90;;;;;;5088533;28;20043;-54
2021/08/06 01:47:55;;;;;;;19.60;17.80;;;15.60;99.90;;;;;;5101364;28;20052;-52
2021/08/06 01:50:31;;;;;;;20.20;18.25;;;15.60;99.90;;;;;;5084419;28;20149;-53
2021/08/06 01:53:07;;;;;;;20.15;18.35;;;15.60;99.90;;;;;;5065946;28;20057;-55
2021/08/06 01:55:51;;;;;;;19.58;17.92;;;15.60;99.90;;;;;;5075786;28;20052;-54
2021/08/06 01:58:19;;;;;;;20.48;18.60;;;15.60;99.90;;;;;;5082416;28;20099;-54
2021/08/06 02:00:54;;;;;;;19.30;17.60;;;15.70;99.90;;;;;;5072575;28;20051;-50
2021/08/06 02:03:22;;;;;;;19.38;17.58;;;15.70;99.90;;;;;;5084194;28;20396;-49
2021/08/06 02:05:53;;;;;;;20.02;18.33;;;15.70;99.90;;;;;;5089001;28;20142;-49
2021/08/06 02:08:23;;;;;;;19.98;18.08;;;15.80;99.90;;;;;;5070548;28;20048;-50
2021/08/06 02:10:53;;;;;;;19.73;17.83;;;15.70;99.90;;;;;;5083784;28;20040;-52
2021/08/06 02:13:23;;;;;;;19.05;17.30;;;15.80;99.90;;;;;;5087003;28;20044;-53
2021/08/06 02:15:51;;;;;;;19.08;17.25;;;15.80;99.90;;;;;;5084535;28;20112;-49
2021/08/06 02:18:27;;;;;;;19.52;17.52;;;15.80;99.90;;;;;;5087121;28;20051;-53
2021/08/06 02:21:11;;;;;;;18.20;16.48;;;15.90;99.90;;;;;;5087238;28;20055;-52
2021/08/06 02:23:43;;;;;;;19.75;17.80;;;15.80;99.90;;;;;;5091469;28;20385;-53
2021/08/06 02:26:13;;;;;;;18.55;16.73;;;15.80;99.90;;;;;;5084718;28;20135;-53
2021/08/06 02:28:40;;;;;;;18.52;16.75;;;15.90;99.90;;;;;;5084536;28;20067;-53
2021/08/06 02:31:07;;;;;;;19.52;17.52;;;15.90;99.90;;;;;;5087602;28;20051;-51
2021/08/06 02:33:36;;;;;;;19.05;17.15;;;15.90;99.90;;;;;;5087111;28;20480;-52
2021/08/06 02:36:04;;;;;;;18.00;16.25;;;16.00;99.90;;;;;;5092178;28;20044;-49
2021/08/06 02:38:33;;;;;;;17.88;16.17;;;16.00;99.90;;;;;;5089315;28;20044;-54
2021/08/06 02:41:00;;;;;;;17.88;16.27;;;16.00;99.90;;;;;;5087598;28;20432;-54
2021/08/06 02:43:26;;;;;;;18.20;16.52;;;16.00;99.90;;;;;;5087324;28;20438;-51
2021/08/06 02:45:52;;;;;;;18.00;16.30;;;16.10;99.90;;;;;;5090389;28;20131;-54
2021/08/06 02:48:20;;;;;;;17.80;15.90;;;16.10;99.90;;;;;;5089593;28;20059;-53
2021/08/06 02:50:46;;;;;;;17.40;15.73;;;16.10;99.90;;;;;;5106629;28;20081;-53
2021/08/06 02:53:13;;;;;;;16.65;15.15;;;16.10;99.90;;;;;;5081082;28;20052;-53
2021/08/06 02:55:42;;;;;;;16.17;14.68;;;16.10;99.90;;;;;;5095700;28;20134;-53
2021/08/06 02:58:09;;;;;;;17.38;15.77;;;16.10;99.90;;;;;;5090394;28;20052;-50
2021/08/06 03:00:35;;;;;;;17.90;16.30;;;16.10;99.90;;;;;;5089449;28;20079;-54
2021/08/06 03:03:03;;;;;;;16.35;14.75;;;16.10;99.90;;;;;;5111301;28;20112;-52
2021/08/06 03:05:31;;;;;;;18.02;16.30;;;16.10;99.90;;;;;;5091063;28;20047;-54
2021/08/06 03:07:57;;;;;;;18.80;17.00;;;16.10;99.90;;;;;;5114930;28;20468;-51
2021/08/06 03:10:25;;;;;;;17.95;16.08;;;16.10;99.90;;;;;;5089098;28;20617;-49
2021/08/06 03:12:51;;;;;;;15.95;14.45;;;16.10;99.90;;;;;;5086781;28;20063;-51
2021/08/06 03:15:21;;;;;;;18.23;16.42;;;16.10;99.90;;;;;;5093880;28;20048;-49
2021/08/06 03:17:47;;;;;;;16.85;15.30;;;16.10;99.90;;;;;;5089533;28;20043;-49
2021/08/06 03:20:18;;;;;;;16.25;14.60;;;16.10;99.90;;;;;;5092166;28;20118;-52
2021/08/06 03:22:50;;;;;;;16.48;14.85;;;16.00;99.90;;;;;;5090302;28;20069;-54
2021/08/06 03:25:19;;;;;;;17.55;15.85;;;16.10;99.90;;;;;;5089131;28;20130;-54
2021/08/06 03:27:46;;;;;;;17.40;15.70;;;16.10;99.90;;;;;;5090218;28;20131;-53
2021/08/06 03:30:14;;;;;;;17.58;15.88;;;16.10;99.90;;;;;;5071882;28;20492;-51
2021/08/06 03:32:44;;;;;;;18.58;16.65;;;16.10;99.90;;;;;;5072287;28;20091;-50
2021/08/06 03:35:13;;;;;;;16.98;15.20;;;16.10;99.90;;;;;;5108419;28;20048;-54
2021/08/06 03:37:41;;;;;;;17.88;16.10;;;16.10;99.90;;;;;;5089103;28;20442;-52
2021/08/06 03:40:08;;;;;;;16.85;15.27;;;16.10;99.90;;;;;;5106768;28;20514;-51
2021/08/06 03:42:38;;;;;;;17.52;15.93;;;16.10;99.90;;;;;;5108141;28;20564;-51
2021/08/06 03:45:05;;;;;;;16.90;15.32;;;16.10;99.90;;;;;;5115319;28;20051;-51
2021/08/06 03:47:32;;;;;;;18.25;16.48;;;16.00;99.90;;;;;;5090619;28;20135;-52
2021/08/06 03:49:58;;;;;;;17.73;16.15;;;16.00;99.90;;;;;;5108680;28;20120;-51
2021/08/06 03:52:24;;;;;;;18.15;16.45;;;16.00;99.90;;;;;;5089579;28;20557;-51
2021/08/06 03:54:51;;;;;;;19.00;17.20;;;16.00;99.90;;;;;;5107777;28;20559;-52
2021/08/06 03:57:17;;;;;;;18.42;16.63;;;16.00;99.90;;;;;;5089795;28;20059;-53
2021/08/06 03:59:44;;;;;;;17.67;15.98;;;16.00;99.90;;;;;;5089048;28;20047;-51
2021/08/06 04:02:11;;;;;;;17.92;16.08;;;16.00;99.90;;;;;;5089699;28;20112;-50
2021/08/06 04:04:37;;;;;;;17.92;16.10;;;16.00;99.90;;;;;;5085292;28;20052;-51
2021/08/06 04:07:03;;;;;;;17.70;15.60;;;16.00;99.90;;;;;;5098175;28;20408;-50
2021/08/06 04:09:30;;;;;;;17.33;15.48;;;16.00;99.90;;;;;;5088784;28;20376;-52
2021/08/06 04:11:56;;;;;;;17.58;15.88;;;16.00;99.90;;;;;;5092518;28;20047;-51
2021/08/06 04:14:22;;;;;;;17.05;15.35;;;16.00;99.90;;;;;;5070065;28;20084;-51
2021/08/06 04:16:48;;;;;;;16.75;15.00;;;16.00;99.90;;;;;;5085226;28;20431;-51
2021/08/06 04:19:15;;;;;;;16.67;14.98;;;16.00;99.90;;;;;;5085105;28;20057;-50
2021/08/06 04:21:42;;;;;;;17.92;16.13;;;16.10;99.90;;;;;;5088240;28;20778;-49
2021/08/06 04:24:08;;;;;;;18.40;16.60;;;16.10;99.90;;;;;;5088832;28;20147;-49
2021/08/06 04:26:38;;;;;;;17.98;16.10;;;16.10;99.90;;;;;;5105704;28;20392;-51
2021/08/06 04:29:06;;;;;;;18.43;16.20;;;16.10;99.90;;;;;;5107415;28;20047;-52
2021/08/06 04:31:33;;;;;;;20.10;15.60;;;16.10;99.90;;;;;;5087582;28;20075;-52
2021/08/06 04:34:04;;;;;;;16.95;15.35;;;16.10;99.90;;;;;;5106246;28;20081;-51
2021/08/06 04:36:33;;;;;;;17.70;16.00;;;16.10;99.90;;;;;;5096293;28;20118;-48
2021/08/06 04:38:59;;;;;;;16.83;15.23;;;16.10;99.90;;;;;;5106796;28;20047;-50
2021/08/06 04:41:27;;;;;;;16.45;14.88;;;16.20;99.90;;;;;;5105032;28;20047;-49
2021/08/06 04:43:53;;;;;;;17.52;15.68;;;16.20;99.90;;;;;;5108222;28;20137;-53
2021/08/06 04:46:22;;;;;;;16.67;15.18;;;16.20;99.90;;;;;;5085389;28;20055;-52
2021/08/06 04:48:51;;;;;;;16.98;15.30;;;16.20;99.90;;;;;;5102614;28;20496;-50
2021/08/06 04:51:17;;;;;;;16.08;14.45;;;16.20;99.90;;;;;;5105681;28;20056;-50
2021/08/06 04:53:44;;;;;;;15.85;14.40;;;16.20;99.90;;;;;;5086255;28;20048;-50
2021/08/06 04:56:11;;;;;;;16.38;14.68;;;16.30;99.90;;;;;;5076099;28;20142;-49
2021/08/06 04:58:39;;;;;;;16.23;14.57;;;16.30;99.90;;;;;;5093048;28;20127;-54
2021/08/06 05:01:05;;;;;;;15.43;13.93;;;16.30;99.90;;;;;;5089015;28;20069;-49
2021/08/06 05:03:31;;;;;;;15.30;13.73;;;16.40;99.90;;;;;;5087633;28;20058;-53
2021/08/06 05:06:00;;;;;;;14.77;13.20;;;16.40;99.90;;;;;;5089027;28;20040;-50
2021/08/06 05:08:29;;;;;;;15.15;13.55;;;16.50;99.90;;;;;;5089944;28;20078;-51
2021/08/06 05:10:55;;;;;;;14.88;13.30;;;16.60;99.90;;;;;;5087676;28;20063;-49
2021/08/06 05:13:22;;;;;;;14.77;13.32;;;16.70;99.90;;;;;;5107351;28;20116;-51
2021/08/06 05:15:49;;;;;;;14.27;12.88;;;16.90;99.90;;;;;;5089827;28;20054;-49
2021/08/06 05:18:20;;;;;;;13.27;12.00;;;17.10;99.90;;;;;;5109423;28;20568;-51
2021/08/06 05:20:50;;;;;;;13.27;11.98;;;17.10;99.90;;;;;;5106743;28;20071;-51
2021/08/06 05:23:20;;;;;;;13.43;11.82;;;17.20;99.90;;;;;;5089072;28;20047;-48
2021/08/06 05:25:47;;;;;;;13.38;11.98;;;17.30;99.90;;;;;;5089264;28;20051;-50
2021/08/06 05:28:14;;;;;;;12.88;11.45;;;17.50;99.90;;;;;;5085567;28;20040;-49
2021/08/06 05:30:43;;;;;;;11.45;10.35;;;17.80;99.90;;;;;;5074347;28;20043;-48
2021/08/06 05:33:11;;;;;;;14.38;12.88;;;17.90;99.90;;;;;;5102216;28;20055;-49
2021/08/06 05:35:39;;;;;;;25.13;22.55;;;18.10;99.90;;;;;;5095591;28;20063;-51
2021/08/06 05:38:08;;;;;;;14.38;12.38;;;18.40;99.90;;;;;;5089535;28;20051;-51
2021/08/06 05:40:37;;;;;;;18.85;16.05;;;18.40;99.90;;;;;;5089150;28;20434;-51
2021/08/06 05:43:09;;;;;;;27.00;24.25;;;18.40;99.90;;;;;;5088983;28;20408;-49
2021/08/06 05:45:38;;;;;;;13.27;11.88;;;18.40;99.90;;;;;;5098512;28;20658;-48
2021/08/06 05:48:08;;;;;;;;;;;18.30;99.90;;;;;;5088677;28;20051;-48
2021/08/06 05:50:40;;;;;;;15.27;13.48;;;18.10;99.90;;;;;;5086118;28;19924;-48
2021/08/06 05:53:11;;;;;;;28.60;25.75;;;18.00;99.90;;;;;;5087408;28;20047;-47
2021/08/06 05:55:40;;;;;;;12.70;11.13;;;18.00;99.90;;;;;;5091094;28;20052;-47
2021/08/06 05:58:12;;;;;;;21.80;19.65;;;17.90;99.90;;;;;;5090720;28;20475;-47
2021/08/06 06:00:42;;;;;;;30.15;27.27;;;17.90;99.90;;;;;;5107447;28;20081;-47
2021/08/06 06:03:18;;;;;;;39.08;35.28;;;17.80;99.90;;;;;;5089652;28;20048;-48
2021/08/06 06:05:57;;;;;;;12.32;11.13;;;17.80;99.90;;;;;;5080519;28;20040;-47
2021/08/06 06:08:26;;;;;;;16.70;15.05;;;17.80;99.90;;;;;;5069512;28;20059;-48
2021/08/06 06:10:53;;;;;;;21.25;19.20;;;17.80;99.90;;;;;;5088271;28;20052;-49
2021/08/06 06:13:20;;;;;;;40.05;36.30;;;17.80;99.90;;;;;;5105370;28;20196;-48
2021/08/06 06:15:49;;;;;;;12.07;10.55;;;17.90;99.90;;;;;;5088031;28;20047;-47
2021/08/06 06:18:16;;;;;;;12.40;11.23;;;17.90;99.90;;;;;;5085988;28;20126;-47
2021/08/06 06:20:43;;;;;;;11.98;10.77;;;17.80;99.90;;;;;;5088924;28;20055;-51
2021/08/06 06:23:13;;;;;;;11.98;10.85;;;17.90;99.90;;;;;;5088774;28;20047;-48
2021/08/06 06:25:45;;;;;;;11.50;10.27;;;17.90;99.90;;;;;;5087375;28;20415;-51
2021/08/06 06:28:12;;;;;;;13.18;10.73;;;17.90;99.90;;;;;;5072610;28;20055;-48
2021/08/06 06:30:46;;;;;;;12.05;10.88;;;18.00;99.90;;;;;;5088741;28;20044;-49
2021/08/06 06:33:16;;;;;;;16.30;14.60;;;18.00;99.90;;;;;;5103813;28;20475;-50
2021/08/06 06:35:46;;;;;;;11.73;10.02;;;18.00;99.90;;;;;;5088768;28;20059;-48
2021/08/06 06:38:13;;;;;;;12.13;10.50;;;17.90;99.90;;;;;;5088823;28;20104;-49
2021/08/06 06:40:39;;;;;;;11.93;10.40;;;17.90;99.90;;;;;;5088282;28;20067;-48
2021/08/06 06:43:12;;;;;;;11.30;10.07;;;17.90;99.90;;;;;;5088409;28;20050;-48
2021/08/06 06:45:41;;;;;;;12.82;9.27;;;17.80;99.90;;;;;;5109993;28;20091;-48
2021/08/06 06:48:08;;;;;;;13.43;10.90;;;17.80;99.90;;;;;;5099808;28;20040;-53
2021/08/06 06:50:37;;;;;;;11.55;10.18;;;17.80;99.90;;;;;;5092513;28;20059;-55
2021/08/06 06:53:06;;;;;;;12.70;10.38;;;17.60;99.90;;;;;;5108897;28;20470;-57
2021/08/06 06:55:32;;;;;;;10.32;9.07;;;17.50;99.90;;;;;;5090497;28;20071;-55
2021/08/06 06:57:59;;;;;;;14.43;11.88;;;17.50;99.90;;;;;;5108627;28;20055;-54
2021/08/06 07:00:32;;;;;;;11.15;9.90;;;17.50;99.90;;;;;;5089583;28;20509;-54
2021/08/06 07:03:01;;;;;;;13.15;9.60;;;17.50;99.90;;;;;;5082038;28;20058;-54
2021/08/06 07:05:31;;;;;;;11.52;10.27;;;17.50;99.90;;;;;;5088320;28;20444;-53
2021/08/06 07:08:02;;;;;;;10.73;9.63;;;17.50;99.90;;;;;;5097034;28;20047;-54
2021/08/06 07:10:31;;;;;;;12.38;11.05;;;17.50;99.90;;;;;;5091532;28;20052;-54
2021/08/06 07:13:02;;;;;;;13.02;11.45;;;17.60;99.90;;;;;;5088988;28;20496;-54
2021/08/06 07:15:28;;;;;;;14.05;12.55;;;17.70;99.90;;;;;;5083783;28;20052;-54
2021/08/06 07:17:54;;;;;;;14.25;12.65;;;17.70;99.90;;;;;;5084853;28;20051;-52
2021/08/06 07:20:26;;;;;;;12.32;10.32;;;17.80;99.90;;;;;;5088129;28;20056;-54
2021/08/06 07:22:55;;;;;;;11.38;10.20;;;17.80;99.90;;;;;;5084157;28;20600;-53
2021/08/06 07:25:21;;;;;;;12.88;11.57;;;17.90;99.90;;;;;;5089214;28;20051;-52
2021/08/06 07:27:48;;;;;;;12.68;11.38;;;17.90;99.90;;;;;;5108972;28;20550;-50
2021/08/06 07:30:19;;;;;;;10.90;9.80;;;18.00;99.90;;;;;;5088407;28;20077;-54
2021/08/06 07:32:46;;;;;;;12.18;10.35;;;18.20;99.90;;;;;;5105026;28;20050;-53
2021/08/06 07:35:13;;;;;;;12.20;10.45;;;18.30;99.90;;;;;;5088205;28;20056;-53
2021/08/06 07:37:43;;;;;;;12.75;11.10;;;18.60;99.90;;;;;;5108564;27;20043;-50
2021/08/06 07:40:11;;;;;;;9.63;8.63;;;18.80;99.90;;;;;;5091390;28;20048;-54
2021/08/06 07:42:37;;;;;;;10.38;8.82;;;18.90;99.90;;;;;;5098915;28;20056;-53
2021/08/06 07:45:05;;;;;;;9.93;8.88;;;19.00;99.90;;;;;;5088493;28;20064;-50
2021/08/06 07:47:31;;;;;;;9.57;7.72;;;19.10;99.90;;;;;;5071823;28;20087;-50
2021/08/06 07:50:01;;;;;;;9.70;8.40;;;19.10;99.90;;;;;;5089097;28;20060;-51
2021/08/06 07:52:27;;;;;;;12.90;8.07;;;19.00;99.90;;;;;;5081383;28;20043;-52
2021/08/06 07:54:54;;;;;;;11.52;8.75;;;19.00;99.90;;;;;;5087356;28;20510;-50
2021/08/06 07:57:21;;;;;;;9.30;7.97;;;19.00;99.90;;;;;;5078274;28;20181;-49
2021/08/06 07:59:47;;;;;;;10.52;8.52;;;18.90;99.90;;;;;;5095342;28;20139;-55
2021/08/06 08:02:21;;;;;;;19.25;16.90;;;18.60;99.90;;;;;;5071624;28;20052;-53
2021/08/06 08:04:48;;;;;;;12.23;10.15;;;18.40;99.90;;;;;;5097506;28;20048;-46
2021/08/06 08:07:15;;;;;;;11.85;10.50;;;18.10;99.90;;;;;;5096387;28;20456;-46
2021/08/06 08:09:42;;;;;;;18.65;13.07;;;18.00;99.90;;;;;;5091752;28;20054;-47
2021/08/06 08:12:08;;;;;;;11.95;10.57;;;18.00;99.90;;;;;;5085058;28;20415;-48
2021/08/06 08:14:36;;;;;;;12.07;10.15;;;17.90;99.90;;;;;;5064967;28;20059;-49
2021/08/06 08:17:05;;;;;;;15.20;11.60;;;17.80;99.90;;;;;;5094298;28;20830;-47
2021/08/06 08:19:32;;;;;;;22.00;19.65;;;17.70;99.90;;;;;;5115657;28;20044;-49
2021/08/06 08:21:58;;;;;;;14.65;12.38;;;17.80;99.90;;;;;;5095458;28;20073;-47
2021/08/06 08:24:24;;;;;;;13.65;12.10;;;17.80;99.90;;;;;;5091046;28;20047;-51
2021/08/06 08:26:51;;;;;;;13.10;10.95;;;17.80;99.90;;;;;;5079075;28;20770;-46
2021/08/06 08:29:18;;;;;;;18.27;16.45;;;18.00;99.90;;;;;;5116335;28;20055;-47
2021/08/06 08:31:44;;;;;;;18.63;16.65;;;18.20;99.90;;;;;;5091510;28;20043;-49
2021/08/06 08:34:11;;;;;;;16.55;14.95;;;18.30;99.90;;;;;;5088413;28;20055;-46
2021/08/06 08:36:38;;;;;;;12.35;11.15;;;18.60;99.90;;;;;;5090929;28;20133;-50
2021/08/06 08:39:05;;;;;;;16.83;14.95;;;18.70;99.90;;;;;;5094422;28;20040;-48
2021/08/06 08:41:34;;;;;;;13.70;12.30;;;19.00;99.90;;;;;;5086663;28;20044;-46
2021/08/06 08:44:01;;;;;;;11.05;9.95;;;19.30;99.90;;;;;;5089270;28;20555;-47
2021/08/06 08:46:32;;;;;;;10.18;9.02;;;19.40;99.90;;;;;;5085507;28;20492;-50
2021/08/06 08:49:00;;;;;;;11.82;10.82;;;19.50;99.90;;;;;;5081453;28;20051;-46
2021/08/06 08:51:30;;;;;;;12.10;11.00;;;19.80;99.90;;;;;;5085901;28;20056;-47
2021/08/06 08:54:00;;;;;;;10.27;8.65;;;19.90;99.90;;;;;;5109616;28;20142;-49
2021/08/06 08:56:30;;;;;;;10.70;9.70;;;20.00;99.90;;;;;;5097158;28;20503;-50
2021/08/06 08:58:57;;;;;;;8.68;7.78;;;20.30;99.90;;;;;;5105164;27;20154;-47
2021/08/06 09:01:23;;;;;;;8.15;7.35;;;20.30;99.90;;;;;;5095019;28;20115;-47
2021/08/06 09:03:52;;;;;;;8.63;6.55;;;20.30;99.90;;;;;;5085451;28;20450;-47
2021/08/06 09:06:40;;;;;;;8.50;6.55;;;20.10;99.90;;;;;;5078965;28;20047;-47
2021/08/06 09:09:15;;;;;;;13.85;8.38;;;19.90;99.90;;;;;;5095101;28;20050;-52
2021/08/06 09:12:11;;;;;;;8.30;6.75;;;19.90;99.90;;;;;;5105977;28;20526;-49
2021/08/06 09:15:02;;;;;;;9.23;7.32;;;19.60;99.90;;;;;;5095050;28;20039;-46
2021/08/06 09:17:37;;;;;;;9.70;8.65;;;19.50;99.90;;;;;;5107775;28;20125;-47
2021/08/06 09:20:07;;;;;;;7.22;6.53;;;19.40;99.90;;;;;;5108382;28;20052;-47
2021/08/06 09:22:40;;;;;;;11.23;9.30;;;19.10;99.90;;;;;;5088553;28;20585;-45
2021/08/06 09:25:10;;;;;;;12.77;8.90;;;19.00;99.90;;;;;;5108739;28;20071;-47
2021/08/06 09:27:59;;;;;;;9.27;6.32;;;18.80;99.90;;;;;;5089336;28;20121;-46
2021/08/06 09:30:37;;;;;;;8.52;6.47;;;18.20;99.90;;;;;;5113870;28;20509;-45
2021/08/06 09:33:05;;;;;;;7.75;6.60;;;18.10;99.90;;;;;;5089132;28;20044;-47
2021/08/06 09:35:35;;;;;;;7.07;5.07;;;18.10;99.90;;;;;;5107636;28;20151;-45
2021/08/06 09:38:03;;;;;;;6.35;5.50;;;18.10;99.90;;;;;;5089326;28;20050;-45
2021/08/06 09:40:32;;;;;;;6.70;5.95;;;18.40;99.90;;;;;;5108000;28;20081;-47
2021/08/06 09:43:05;;;;;;;8.07;7.28;;;18.80;99.90;;;;;;5107107;28;20046;-45
2021/08/06 09:45:40;;;;;;;5.20;4.70;;;19.10;99.90;;;;;;5107883;28;20040;-46
2021/08/06 09:48:09;;;;;;;5.40;4.90;;;19.50;99.90;;;;;;5106589;28;20054;-45
2021/08/06 09:50:44;;;;;;;5.20;4.40;;;20.20;99.90;;;;;;5106105;28;20055;-45
2021/08/06 09:53:11;;;;;;;6.65;5.78;;;21.00;99.90;;;;;;5106055;28;20051;-45
2021/08/06 09:55:40;;;;;;;3.97;2.90;;;21.70;99.90;;;;;;5104829;28;20073;-46
2021/08/06 09:58:11;;;;;;;20.52;18.58;;;22.00;99.90;;;;;;5106590;28;20381;-49
2021/08/06 10:00:41;;;;;;;;;;;21.90;99.90;;;;;;5107467;28;20043;-44
2021/08/06 10:03:08;;;;;;;4.03;3.13;;;21.80;99.90;;;;;;5087290;28;20511;-46
2021/08/06 10:05:35;;;;;;;40.15;36.35;;;22.20;99.90;;;;;;5107240;28;20044;-45
2021/08/06 10:08:02;;;;;;;9.25;8.38;;;22.10;99.90;;;;;;5106150;28;20054;-47
2021/08/06 10:10:37;;;;;;;4.78;3.42;;;21.70;99.90;;;;;;5105783;28;20047;-47
2021/08/06 10:13:05;;;;;;;5.45;4.20;;;21.40;99.90;;;;;;5104009;28;20503;-46
2021/08/06 10:15:35;;;;;;;6.30;5.40;;;21.30;99.90;;;;;;5070090;28;20496;-47
2021/08/06 10:18:04;;;;;;;7.40;6.55;;;21.30;99.90;;;;;;5103446;28;20058;-48
2021/08/06 10:20:33;;;;;;;7.50;6.70;;;21.20;99.90;;;;;;5114825;28;20035;-46
2021/08/06 10:23:02;;;;;;;4.70;3.67;;;21.00;99.90;;;;;;5108468;28;20553;-49
2021/08/06 10:25:31;;;;;;;4.25;3.22;;;20.90;99.90;;;;;;5110910;28;20048;-47
2021/08/06 10:27:58;;;;;;;4.80;3.47;;;21.20;99.90;;;;;;5075814;28;20521;-50
2021/08/06 10:30:25;;;;;;;5.93;3.63;;;21.70;99.90;;;;;;5111194;28;20040;-47
2021/08/06 10:33:29;;;;;;;3.67;2.93;;;22.20;99.90;;;;;;5111291;28;20499;-48
2021/08/06 10:36:06;;;;;;;14.95;13.02;;;22.50;99.90;;;;;;5110153;28;20194;-47
2021/08/06 10:38:40;;;;;;;5.97;4.95;;;22.40;99.90;;;;;;5110390;28;20055;-50
2021/08/06 10:41:23;;;;;;;6.82;6.13;;;22.00;99.90;;;;;;5108344;28;20055;-49
2021/08/06 10:43:57;;;;;;;12.20;10.70;;;21.80;99.90;;;;;;5102838;28;20500;-49
2021/08/06 10:46:25;;;;;;;6.38;5.05;;;21.70;99.90;;;;;;5111394;28;20055;-48
2021/08/06 10:48:55;;;;;;;6.97;6.07;;;21.70;99.90;;;;;;5112347;28;20071;-48
2021/08/06 10:51:32;;;;;;;6.40;5.53;;;22.10;99.90;;;;;;5110284;28;20055;-50
2021/08/06 10:54:01;;;;;;;5.28;4.65;;;22.20;99.90;;;;;;5107412;27;20543;-51
2021/08/06 10:56:30;;;;;;;9.85;8.80;;;22.80;99.90;;;;;;5108370;28;20075;-52
2021/08/06 10:59:14;;;;;;;5.63;4.45;;;23.30;99.90;;;;;;5116913;28;20044;-54
2021/08/06 11:01:40;;;;;;;11.25;7.03;;;23.20;99.90;;;;;;5090491;28;20081;-48
2021/08/06 11:04:28;;;;;;;8.95;7.22;;;22.80;99.90;;;;;;5092801;28;20059;-47
2021/08/06 11:06:55;;;;;;;7.22;5.10;;;23.00;99.90;;;;;;5110490;28;20043;-53
2021/08/06 11:09:28;;;;;;;8.52;6.13;;;23.00;99.90;;;;;;5120417;27;20047;-49
2021/08/06 11:12:00;;;;;;;11.43;6.18;;;23.10;99.90;;;;;;5097928;28;20050;-52
2021/08/06 11:14:34;;;;;;;;;;;23.00;99.90;;;;;;5111312;28;20048;-49
2021/08/06 11:17:16;;;;;;;6.55;3.35;;;24.00;99.90;;;;;;5107226;28;20084;-48
2021/08/06 11:19:52;;;;;;;5.43;4.18;;;24.40;99.90;;;;;;5089652;28;20191;-47
2021/08/06 11:22:23;;;;;;;5.18;4.22;;;23.80;99.90;;;;;;5109679;28;20059;-47
2021/08/06 11:24:55;;;;;;;5.50;3.78;;;24.20;99.90;;;;;;5113729;28;20084;-48
2021/08/06 11:27:31;;;;;;;4.78;3.88;;;24.10;99.90;;;;;;5115166;28;20135;-50
2021/08/06 11:30:26;;;;;;;5.65;4.20;;;24.00;99.90;;;;;;5089010;28;20421;-48
2021/08/06 11:33:03;;;;;;;5.47;4.80;;;24.20;99.90;;;;;;5111898;27;20468;-49
2021/08/06 11:35:34;;;;;;;8.13;4.00;;;24.50;99.90;;;;;;5111501;27;20495;-47
2021/08/06 11:38:04;;;;;;;5.13;3.70;;;24.60;99.90;;;;;;5111617;28;20039;-50
2021/08/06 11:40:31;;;;;;;7.18;3.80;;;24.30;97.50;;;;;;5113248;28;20051;-49
2021/08/06 11:43:19;;;;;;;5.03;3.92;;;24.30;99.20;;;;;;5109902;28;20052;-47
2021/08/06 11:45:49;;;;;;;5.25;4.25;;;24.80;99.90;;;;;;5109735;28;20039;-50
2021/08/06 11:48:17;;;;;;;4.65;3.70;;;25.00;99.90;;;;;;5110248;28;20419;-49
2021/08/06 11:50:50;;;;;;;5.65;4.30;;;25.30;99.90;;;;;;5110734;28;20087;-50
2021/08/06 11:53:19;;;;;;;6.80;4.05;;;25.50;95.40;;;;;;5110698;28;20067;-48
2021/08/06 11:55:48;;;;;;;5.68;4.05;;;25.50;97.10;;;;;;5112440;28;20048;-52
2021/08/06 11:58:23;;;;;;;4.90;3.30;;;25.40;91.80;;;;;;5109470;28;20043;-49
2021/08/06 12:00:49;;;;;;;7.10;3.90;;;25.30;91.90;;;;;;5115197;28;20049;-51
2021/08/06 12:03:17;;;;;;;5.05;3.80;;;25.60;94.80;;;;;;5110044;28;20134;-50
2021/08/06 12:05:51;;;;;;;7.22;4.07;;;24.60;90.00;;;;;;5109419;28;20138;-49
2021/08/06 12:08:30;;;;;;;5.43;4.20;;;24.60;95.20;;;;;;5111374;28;20157;-53
2021/08/06 12:11:20;;;;;;;5.53;4.22;;;24.50;93.60;;;;;;5110910;28;20683;-48
2021/08/06 12:13:49;;;;;;;5.90;3.83;;;24.50;91.40;;;;;;5109400;28;20070;-50
2021/08/06 12:16:24;;;;;;;6.18;3.67;;;24.30;95.30;;;;;;5109069;28;20055;-48
2021/08/06 12:18:50;;;;;;;5.03;3.40;;;24.00;95.00;;;;;;5099029;28;20070;-47
2021/08/06 12:21:27;;;;;;;5.00;3.65;;;23.70;99.80;;;;;;5111147;28;20096;-47
2021/08/06 12:23:59;;;;;;;5.57;4.00;;;23.20;99.00;;;;;;5109627;28;20105;-51
2021/08/06 12:26:34;;;;;;;4.68;4.15;;;22.80;99.90;;;;;;5111369;28;20461;-48
2021/08/06 12:29:27;;;;;;;7.18;3.95;;;22.80;99.90;;;;;;5094995;28;20043;-47
2021/08/06 12:31:58;;;;;;;6.50;4.55;;;22.70;99.90;;;;;;5104428;28;20189;-49
2021/08/06 12:34:41;;;;;;;8.27;4.20;;;23.20;99.90;;;;;;5109828;28;20499;-52
2021/08/06 12:37:10;;;;;;;6.90;3.63;;;23.30;99.90;;;;;;5115459;28;20051;-48
2021/08/06 12:39:52;;;;;;;5.90;3.95;;;23.10;99.90;;;;;;5108581;28;20133;-47
2021/08/06 12:42:20;;;;;;;4.85;3.58;;;22.80;99.90;;;;;;5108854;28;20559;-47
2021/08/06 12:45:02;;;;;;;5.20;3.75;;;22.70;99.90;;;;;;5108362;28;20062;-49
2021/08/06 12:47:49;;;;;;;4.90;3.70;;;22.50;99.90;;;;;;5111036;28;20138;-50
2021/08/06 12:50:24;;;;;;;7.10;4.25;;;22.40;99.90;;;;;;5095358;28;20054;-51